Time;durP1;ratioP1;P1;durP2;ratioP2;P2;SDS_P1;SDS_P2;PMS_P1;PMS_P2;Temp;Humidity;BMP_temperature;BMP_pressure;BME280_temperature;BME280_humidity;BME280_pressure;Samples;Min_cycle;Max_cycle;Signal;HPM_P1;HPM_P2
2022/06/01 00:01:48;;;;;;;37.40;28.90;;;;;;;9.65;100.00;101264.97;5097714;28;20036;-63
2022/06/01 00:04:14;;;;;;;34.55;28.65;;;;;;;9.70;100.00;101264.06;5098337;28;20407;-63
2022/06/01 00:06:40;;;;;;;33.03;28.25;;;;;;;9.67;100.00;101255.38;5098225;28;20089;-64
2022/06/01 00:09:05;;;;;;;33.35;28.40;;;;;;;9.62;100.00;101251.91;5097815;28;20451;-65
2022/06/01 00:11:30;;;;;;;33.08;27.45;;;;;;;9.59;100.00;101254.53;5096104;28;20115;-65
2022/06/01 00:13:56;;;;;;;32.70;28.45;;;;;;;9.55;100.00;101265.84;5097989;28;20032;-64
2022/06/01 00:16:22;;;;;;;34.08;29.15;;;;;;;9.60;100.00;101264.97;5097703;28;20236;-63
2022/06/01 00:18:48;;;;;;;34.28;27.52;;;;;;;9.52;100.00;101252.81;5097645;28;20031;-64
2022/06/01 00:21:13;;;;;;;35.72;29.38;;;;;;;9.55;100.00;101266.72;5097858;28;20435;-64
2022/06/01 00:23:38;;;;;;;36.00;28.85;;;;;;;9.51;100.00;101264.16;5097780;28;20108;-64
2022/06/01 00:26:04;;;;;;;33.40;28.83;;;;;;;9.53;100.00;101270.22;5097722;28;20308;-63
2022/06/01 00:28:30;;;;;;;31.40;27.30;;;;;;;9.55;100.00;101273.69;5097756;28;20035;-65
2022/06/01 00:30:55;;;;;;;35.10;28.65;;;;;;;9.52;100.00;101269.38;5097361;28;20493;-63
2022/06/01 00:33:21;;;;;;;35.33;28.02;;;;;;;9.59;100.00;101267.59;5097419;28;20023;-64
2022/06/01 00:35:46;;;;;;;33.03;28.02;;;;;;;9.62;100.00;101270.19;5097586;28;20032;-65
2022/06/01 00:38:12;;;;;;;32.47;27.70;;;;;;;9.59;100.00;101262.38;5097157;28;20028;-65
2022/06/01 00:40:38;;;;;;;34.05;29.92;;;;;;;9.73;100.00;101276.25;5097282;28;20114;-63
2022/06/01 00:43:45;;;;;;;36.25;29.27;;;;;;;9.77;100.00;101265.78;5096941;28;20024;-66
2022/06/01 00:46:12;;;;;;;32.25;27.85;;;;;;;9.71;100.00;101262.31;5075261;28;20108;-66
2022/06/01 00:48:43;;;;;;;32.80;28.00;;;;;;;9.68;100.00;101257.13;5097263;28;20102;-64
2022/06/01 00:51:10;;;;;;;34.45;28.27;;;;;;;9.71;100.00;101268.41;5097345;28;20032;-65
2022/06/01 00:53:39;;;;;;;33.95;28.25;;;;;;;9.66;100.00;101264.09;5097284;28;20032;-65
2022/06/01 00:56:10;;;;;;;33.40;27.77;;;;;;;9.63;100.00;101257.13;5096941;28;20035;-65
2022/06/01 00:58:39;;;;;;;32.58;27.75;;;;;;;9.57;100.00;101266.72;5096990;28;20039;-64
2022/06/01 01:01:08;;;;;;;34.05;28.25;;;;;;;9.54;100.00;101267.59;5096902;28;20048;-65
2022/06/01 01:03:37;;;;;;;33.80;29.10;;;;;;;9.55;100.00;101271.06;5097079;28;20039;-64
2022/06/01 01:06:23;;;;;;;33.38;28.52;;;;;;;9.55;100.00;101268.47;5096744;28;20043;-65
2022/06/01 01:08:49;;;;;;;34.70;28.25;;;;;;;9.41;100.00;101251.09;5096457;28;20050;-64
2022/06/01 01:11:18;;;;;;;34.42;29.13;;;;;;;9.39;100.00;101260.66;5096741;28;20075;-65
2022/06/01 01:13:46;;;;;;;36.13;29.23;;;;;;;9.34;100.00;101262.44;5096840;28;20038;-63
2022/06/01 01:16:14;;;;;;;37.90;29.70;;;;;;;9.38;100.00;101266.75;5096711;28;20073;-64
2022/06/01 01:18:43;;;;;;;37.30;30.67;;;;;;;9.38;100.00;101266.75;5096631;28;20106;-65
2022/06/01 01:21:33;;;;;;;38.58;31.23;;;;;;;9.45;100.00;101257.19;5096487;28;20024;-63
2022/06/01 01:24:22;;;;;;;37.72;30.25;;;;;;;9.57;100.00;101261.50;5096027;28;20064;-64
2022/06/01 01:26:50;;;;;;;37.53;31.85;;;;;;;9.65;100.00;101259.75;5096906;28;20097;-64
2022/06/01 01:29:31;;;;;;;37.78;30.50;;;;;;;9.65;100.00;101255.41;5096401;28;20032;-64
2022/06/01 01:31:56;;;;;;;37.03;30.73;;;;;;;9.62;100.00;101250.16;5096300;28;20031;-65
2022/06/01 01:34:21;;;;;;;37.85;30.92;;;;;;;9.21;100.00;101182.34;5096345;28;20333;-64
2022/06/01 01:36:50;;;;;;;37.70;31.30;;;;;;;9.57;100.00;101251.03;5096459;28;20039;-66
2022/06/01 01:39:16;;;;;;;36.83;30.70;;;;;;;9.51;100.00;101246.72;5096390;28;20348;-65
2022/06/01 01:41:46;;;;;;;44.75;32.50;;;;;;;9.50;100.00;101246.72;5096125;28;20039;-65
2022/06/01 01:44:21;;;;;;;39.13;31.83;;;;;;;9.53;100.00;101254.53;5096288;28;20299;-64
2022/06/01 01:46:49;;;;;;;41.03;32.60;;;;;;;9.57;100.00;101257.16;5096227;28;20032;-63
2022/06/01 01:49:21;;;;;;;43.28;33.20;;;;;;;9.59;100.00;101264.97;5096035;28;20032;-63
2022/06/01 01:51:47;;;;;;;42.35;33.20;;;;;;;9.54;100.00;101251.91;5096286;28;20038;-65
2022/06/01 01:54:27;;;;;;;42.88;33.25;;;;;;;9.62;100.00;101255.41;5095911;28;20403;-63
2022/06/01 01:57:03;;;;;;;42.00;34.03;;;;;;;9.50;100.00;101234.53;5095998;28;20058;-63
2022/06/01 01:59:47;;;;;;;45.08;34.28;;;;;;;9.61;100.00;101258.88;5095784;28;20038;-63
2022/06/01 02:02:33;;;;;;;42.83;34.17;;;;;;;9.64;100.00;101263.22;5095778;28;20316;-64
2022/06/01 02:08:01;;;;;;;40.78;33.15;;;;;;;9.57;100.00;101274.56;5095682;28;20047;-65
2022/06/01 02:13:14;;;;;;;41.63;33.30;;;;;;;9.44;100.00;101260.66;5095798;28;20047;-64
2022/06/01 02:15:43;;;;;;;41.42;34.42;;;;;;;9.32;100.00;101269.41;5078173;28;20332;-66
2022/06/01 02:18:14;;;;;;;42.20;32.97;;;;;;;9.29;100.00;101255.47;5095426;28;20032;-65
2022/06/01 02:20:48;;;;;;;42.50;33.83;;;;;;;9.27;100.00;101262.44;5095478;28;20028;-64
2022/06/01 02:23:14;;;;;;;43.45;35.47;;;;;;;9.26;100.00;101260.69;5095548;28;20262;-65
2022/06/01 02:25:44;;;;;;;41.42;34.53;;;;;;;9.18;100.00;101260.69;5095199;28;20063;-65
2022/06/01 02:28:10;;;;;;;42.53;34.08;;;;;;;9.21;100.00;101268.53;5095253;28;20024;-65
2022/06/01 02:30:39;;;;;;;42.08;34.38;;;;;;;9.17;100.00;101260.72;5095304;28;20182;-63
2022/06/01 02:33:08;;;;;;;41.92;33.75;;;;;;;9.21;100.00;101268.53;5095276;28;20032;-64
2022/06/01 02:35:38;;;;;;;41.92;33.28;;;;;;;9.20;100.00;101269.41;5094751;28;20070;-63
2022/06/01 02:38:12;;;;;;;43.67;34.15;;;;;;;9.16;100.00;101272.91;5095484;28;20415;-65
2022/06/01 02:40:38;;;;;;;42.47;33.15;;;;;;;8.95;100.00;101237.25;5095386;28;20031;-65
2022/06/01 02:43:03;;;;;;;40.80;33.45;;;;;;;9.08;100.00;101256.38;5094841;28;20028;-65
2022/06/01 02:45:29;;;;;;;41.80;33.03;;;;;;;9.03;100.00;101252.88;5095199;28;20032;-63
2022/06/01 02:47:59;;;;;;;39.60;33.00;;;;;;;8.89;100.00;101245.06;5095204;28;20466;-65
2022/06/01 02:50:27;;;;;;;41.05;32.72;;;;;;;8.97;100.00;101260.72;5095155;28;20028;-64
2022/06/01 02:52:53;;;;;;;43.25;32.92;;;;;;;8.84;100.00;101252.00;5095048;28;20028;-64
2022/06/01 02:55:21;;;;;;;46.90;33.58;;;;;;;8.93;100.00;101264.19;5095103;28;20035;-64
2022/06/01 02:57:48;;;;;;;41.33;32.90;;;;;;;8.91;100.00;101263.31;5095654;28;20327;-64
2022/06/01 03:00:32;;;;;;;39.45;32.33;;;;;;;8.90;100.00;101269.41;5095173;28;20028;-64
2022/06/01 03:02:59;;;;;;;41.05;32.25;;;;;;;8.72;100.00;101249.41;5095524;28;20343;-64
2022/06/01 03:05:29;;;;;;;40.35;31.65;;;;;;;8.80;100.00;101270.28;5095018;28;20398;-64
2022/06/01 03:07:55;;;;;;;40.22;31.98;;;;;;;8.77;100.00;101262.47;5094802;28;20085;-65
2022/06/01 03:10:21;;;;;;;40.78;33.33;;;;;;;8.76;100.00;101269.41;5094899;28;20036;-63
2022/06/01 03:12:46;;;;;;;39.55;31.70;;;;;;;8.70;100.00;101265.06;5095143;28;20040;-65
2022/06/01 03:15:15;;;;;;;36.72;30.33;;;;;;;8.69;100.00;101267.66;5095272;28;20028;-64
2022/06/01 03:17:40;;;;;;;37.90;30.83;;;;;;;8.72;100.00;101270.28;5094947;28;20110;-65
2022/06/01 03:20:08;;;;;;;38.03;29.83;;;;;;;8.72;100.00;101267.66;5095414;28;20509;-64
2022/06/01 03:22:38;;;;;;;38.80;30.73;;;;;;;8.72;100.00;101276.38;5094905;28;20352;-65
2022/06/01 03:25:06;;;;;;;38.33;30.33;;;;;;;8.66;100.00;101267.66;5094803;28;20366;-64
2022/06/01 03:27:32;;;;;;;39.20;31.23;;;;;;;8.65;100.00;101260.72;5094998;28;20054;-64
2022/06/01 03:29:57;;;;;;;38.70;30.42;;;;;;;8.65;100.00;101263.31;5094815;28;20439;-65
2022/06/01 03:32:22;;;;;;;38.35;29.48;;;;;;;8.58;100.00;101259.81;5094960;28;20031;-65
2022/06/01 03:34:47;;;;;;;39.13;29.42;;;;;;;8.63;100.00;101270.28;5094754;28;20419;-64
2022/06/01 03:37:13;;;;;;;38.45;28.30;;;;;;;8.56;100.00;101261.56;5095058;28;20474;-64
2022/06/01 03:39:38;;;;;;;36.30;28.15;;;;;;;8.64;100.00;101272.03;5094643;28;20039;-65
2022/06/01 03:42:04;;;;;;;35.17;27.08;;;;;;;8.64;100.00;101270.28;5094654;28;20051;-64
2022/06/01 03:47:13;;;;;;;33.17;26.52;;;;;;;8.60;100.00;101254.63;5097544;28;20059;-65
2022/06/01 03:49:39;;;;;;;36.60;26.05;;;;;;;8.57;100.00;101263.31;5098376;28;20451;-64
2022/06/01 03:52:06;;;;;;;33.67;25.83;;;;;;;8.62;100.00;101272.00;5098469;28;20121;-64
2022/06/01 03:54:31;;;;;;;31.75;25.38;;;;;;;8.62;100.00;101266.81;5098525;28;20043;-64
2022/06/01 03:56:57;;;;;;;35.42;25.50;;;;;;;8.51;100.00;101263.28;5098131;28;20028;-63
2022/06/01 03:59:22;;;;;;;32.42;25.77;;;;;;;8.61;100.00;101269.41;5098438;28;20344;-66
2022/06/01 04:01:48;;;;;;;33.58;25.73;;;;;;;8.58;100.00;101274.59;5098285;28;20028;-65
2022/06/01 04:04:13;;;;;;;32.65;25.27;;;;;;;8.61;100.00;101280.72;5098341;28;20110;-65
2022/06/01 04:06:38;;;;;;;34.97;26.23;;;;;;;8.53;100.00;101258.94;5097989;28;20032;-65
2022/06/01 04:09:04;;;;;;;35.58;25.48;;;;;;;8.57;100.00;101272.88;5097941;28;20063;-65
2022/06/01 04:11:29;;;;;;;32.85;25.05;;;;;;;8.57;100.00;101275.47;5097986;28;20075;-65
2022/06/01 04:13:54;;;;;;;34.10;25.23;;;;;;;8.64;100.00;101278.13;5097975;28;20115;-64
2022/06/01 04:16:20;;;;;;;36.25;24.70;;;;;;;8.63;100.00;101273.75;5097919;28;20032;-64
2022/06/01 04:18:46;;;;;;;36.50;24.48;;;;;;;8.72;100.00;101275.50;5097777;28;20060;-66
2022/06/01 04:21:13;;;;;;;30.83;23.73;;;;;;;8.74;100.00;101281.59;5097630;28;20028;-64
2022/06/01 04:23:38;;;;;;;31.15;23.42;;;;;;;8.73;100.00;101274.63;5097557;28;20101;-64
2022/06/01 04:26:03;;;;;;;32.70;24.60;;;;;;;8.73;100.00;101279.84;5097795;28;20036;-65
2022/06/01 04:28:29;;;;;;;34.60;24.05;;;;;;;8.72;100.00;101280.72;5097659;28;20484;-64
2022/06/01 04:30:54;;;;;;;32.20;23.95;;;;;;;8.68;100.00;101274.63;5097382;28;20028;-65
2022/06/01 04:33:20;;;;;;;31.33;23.08;;;;;;;8.79;100.00;101279.88;5097114;28;20064;-64
2022/06/01 04:35:45;;;;;;;30.83;23.67;;;;;;;8.76;100.00;101281.59;5097328;28;20522;-66
2022/06/01 04:38:13;;;;;;;34.25;23.45;;;;;;;8.80;100.00;101281.59;5097531;28;20024;-64
2022/06/01 04:40:45;;;;;;;31.85;23.63;;;;;;;8.77;100.00;101276.38;5097126;28;20501;-64
2022/06/01 04:43:12;;;;;;;31.48;23.33;;;;;;;8.89;100.00;101288.56;5097430;28;20039;-63
2022/06/01 04:45:38;;;;;;;30.65;23.25;;;;;;;8.95;100.00;101285.97;5097393;28;20059;-65
2022/06/01 04:48:03;;;;;;;31.40;23.65;;;;;;;9.04;100.00;101292.03;5096941;28;20424;-66
2022/06/01 04:50:28;;;;;;;29.70;22.63;;;;;;;8.99;100.00;101256.38;5097239;28;20121;-64
2022/06/01 04:52:54;;;;;;;33.03;22.00;;;;;;;9.24;100.00;101292.03;5097264;28;20028;-63
2022/06/01 04:55:19;;;;;;;31.00;21.38;;;;;;;9.30;100.00;101293.78;5097223;28;20032;-64
2022/06/01 04:57:45;;;;;;;29.00;21.38;;;;;;;9.14;100.00;101272.03;5096538;28;20407;-64
2022/06/01 05:00:11;;;;;;;27.63;20.23;;;;;;;9.23;100.00;101297.25;5097145;28;20038;-65
2022/06/01 05:02:36;;;;;;;27.27;20.05;;;;;;;9.27;100.00;101302.47;5097102;28;20032;-64
2022/06/01 05:05:02;;;;;;;28.52;20.70;;;;;;;9.27;100.00;101310.31;5096859;28;20480;-65
2022/06/01 05:07:27;;;;;;;27.45;19.65;;;;;;;9.29;100.00;101292.91;5096998;28;20047;-65
2022/06/01 05:09:52;;;;;;;26.92;19.05;;;;;;;9.32;100.00;101292.91;5096826;28;20051;-65
2022/06/01 05:12:18;;;;;;;24.67;18.10;;;;;;;9.28;100.00;101285.94;5097146;28;20085;-65
2022/06/01 05:14:43;;;;;;;26.98;17.40;;;;;;;9.32;100.00;101284.19;5096873;28;20032;-65
2022/06/01 05:17:08;;;;;;;22.83;17.17;;;;;;;9.31;100.00;101280.72;5096353;28;20032;-65
2022/06/01 05:19:34;;;;;;;22.83;17.23;;;;;;;9.29;100.00;101285.06;5096749;28;20040;-64
2022/06/01 05:22:00;;;;;;;25.92;16.83;;;;;;;9.19;100.00;101266.78;5096705;28;20135;-66
2022/06/01 05:24:25;;;;;;;24.80;18.02;;;;;;;9.32;100.00;101284.19;5096774;28;20577;-65
2022/06/01 05:26:51;;;;;;;24.65;16.65;;;;;;;9.33;100.00;101280.72;5096618;28;20140;-65
2022/06/01 05:29:16;;;;;;;23.92;17.08;;;;;;;9.36;100.00;101286.78;5096738;28;20036;-66
2022/06/01 05:31:44;;;;;;;25.23;17.17;;;;;;;9.45;100.00;101291.13;5096110;28;20043;-66
2022/06/01 05:34:09;;;;;;;27.40;17.60;;;;;;;9.47;100.00;101296.38;5096096;28;20336;-64
2022/06/01 05:36:34;;;;;;;25.42;17.50;;;;;;;9.47;100.00;101291.13;5096410;28;20032;-65
2022/06/01 05:39:00;;;;;;;26.60;17.88;;;;;;;9.40;100.00;101270.25;5096433;28;20035;-66
2022/06/01 05:41:26;;;;;;;23.10;17.00;;;;;;;9.62;100.00;101291.09;5096403;28;20047;-64
2022/06/01 05:43:52;;;;;;;24.10;17.52;;;;;;;9.71;100.00;101283.22;5096113;28;20067;-65
2022/06/01 05:46:18;;;;;;;23.83;18.02;;;;;;;9.65;100.00;101260.63;5096042;28;20083;-65
2022/06/01 05:48:43;;;;;;;28.42;17.42;;;;;;;9.83;100.00;101280.59;5096131;28;20392;-65
2022/06/01 05:51:08;;;;;;;25.75;17.08;;;;;;;10.18;100.00;101293.53;5095875;28;20100;-63
2022/06/01 05:53:34;;;;;;;29.15;18.60;;;;;;;10.23;100.00;101289.16;5096373;28;20026;-64
2022/06/01 05:55:59;;;;;;;24.88;16.92;;;;;;;10.21;100.00;101288.31;5095944;28;20411;-66
2022/06/01 05:58:27;;;;;;;26.17;17.58;;;;;;;10.33;100.00;101300.47;5095915;28;20032;-63
2022/06/01 06:00:54;;;;;;;24.35;16.80;;;;;;;10.39;100.00;101300.44;5095776;28;20331;-65
2022/06/01 06:03:23;;;;;;;25.98;16.60;;;;;;;10.46;100.00;101303.00;5095655;28;20039;-66
2022/06/01 06:08:33;;;;;;;24.85;15.65;;;;;;;11.48;100.00;101290.84;5095919;28;20370;-65
2022/06/01 06:10:58;;;;;;;22.20;15.60;;;;;;;11.57;100.00;101297.78;5095623;28;20024;-66
2022/06/01 06:13:23;;;;;;;25.88;15.38;;;;;;;11.50;100.00;101299.56;5096116;28;20038;-65
2022/06/01 06:15:49;;;;;;;23.17;16.02;;;;;;;11.47;100.00;101302.22;5095816;28;20043;-65
2022/06/01 06:18:14;;;;;;;21.55;15.10;;;;;;;11.39;100.00;101291.81;5095711;28;20020;-65
2022/06/01 06:20:45;;;;;;;21.85;14.25;;;;;;;11.44;100.00;101297.88;5094968;28;20034;-66
2022/06/01 06:23:11;;;;;;;20.90;15.00;;;;;;;11.41;100.00;101303.16;5095643;28;20028;-65
2022/06/01 06:25:38;;;;;;;20.00;14.43;;;;;;;11.35;100.00;101304.97;5094641;28;20375;-65
2022/06/01 06:28:03;;;;;;;19.52;15.00;;;;;;;11.34;100.00;101316.31;5095505;28;20123;-65
2022/06/01 06:30:29;;;;;;;22.45;14.90;;;;;;;11.33;100.00;101318.06;5095350;28;20103;-65
2022/06/01 06:32:54;;;;;;;23.60;14.43;;;;;;;11.35;100.00;101321.56;5095225;28;20026;-65
2022/06/01 06:35:19;;;;;;;21.80;14.88;;;;;;;11.38;100.00;101331.16;5095581;28;20024;-63
2022/06/01 06:37:45;;;;;;;21.90;14.82;;;;;;;11.38;100.00;101337.25;5095252;28;20352;-64
2022/06/01 06:40:11;;;;;;;21.35;15.27;;;;;;;11.45;100.00;101338.91;5095177;28;20054;-65
2022/06/01 06:42:37;;;;;;;22.63;15.88;;;;;;;11.53;100.00;101338.88;5095071;28;20039;-65
2022/06/01 06:45:03;;;;;;;21.02;13.70;;;;;;;11.64;100.00;101347.47;5094840;28;20040;-65
2022/06/01 06:47:32;;;;;;;24.45;14.52;;;;;;;11.51;100.00;101333.63;5095549;28;20439;-64
2022/06/01 06:49:57;;;;;;;23.98;14.98;;;;;;;11.51;100.00;101341.50;5094767;28;20111;-65
2022/06/01 06:52:22;;;;;;;20.80;14.00;;;;;;;11.63;100.00;101355.34;5095469;28;20120;-65
2022/06/01 06:54:48;;;;;;;21.38;14.40;;;;;;;11.60;100.00;101352.78;5095544;28;20028;-65
2022/06/01 06:57:13;;;;;;;22.42;14.43;;;;;;;11.66;100.00;101347.47;5095121;28;20097;-65
2022/06/01 06:59:38;;;;;;;20.63;13.85;;;;;;;11.51;100.00;101323.16;5094959;28;20103;-64
2022/06/01 07:02:04;;;;;;;23.10;14.95;;;;;;;11.65;100.00;101357.09;5095217;28;20035;-64
2022/06/01 07:04:29;;;;;;;22.65;14.07;;;;;;;11.70;100.00;101350.06;5094961;28;20028;-65
2022/06/01 07:06:55;;;;;;;22.52;13.55;;;;;;;11.80;100.00;101356.97;5095169;28;20028;-65
2022/06/01 07:09:20;;;;;;;19.08;13.27;;;;;;;11.83;100.00;101356.94;5095077;28;20494;-64
2022/06/01 07:11:45;;;;;;;18.15;12.73;;;;;;;11.85;99.90;101354.31;5094869;28;20439;-66
2022/06/01 07:14:11;;;;;;;17.63;12.95;;;;;;;11.84;100.00;101358.69;5094958;28;20047;-65
2022/06/01 07:16:36;;;;;;;20.63;14.10;;;;;;;11.91;100.00;101361.25;5095084;28;20066;-64
2022/06/01 07:19:04;;;;;;;21.58;13.65;;;;;;;11.99;100.00;101362.88;5095174;28;20119;-65
2022/06/01 07:21:30;;;;;;;21.02;14.25;;;;;;;12.04;100.00;101344.47;5096962;28;20035;-66
2022/06/01 07:23:55;;;;;;;20.10;14.25;;;;;;;11.99;100.00;101331.41;5098726;28;20463;-66
2022/06/01 07:26:28;;;;;;;18.08;13.73;;;;;;;12.15;100.00;101353.94;5099007;28;20059;-66
2022/06/01 07:28:53;;;;;;;18.10;12.70;;;;;;;12.34;99.24;101354.59;5098708;28;20054;-66
2022/06/01 07:31:19;;;;;;;15.57;11.82;;;;;;;12.38;97.93;101351.06;5098771;28;20039;-64
2022/06/01 07:33:46;;;;;;;16.13;10.77;;;;;;;12.42;96.74;101360.63;5098379;28;20040;-66
2022/06/01 07:36:13;;;;;;;17.58;12.13;;;;;;;12.42;99.43;101360.63;5098873;28;20028;-64
2022/06/01 07:44:19;;;;;;;10.73;7.97;;;;;;;12.70;94.25;101363.75;5098608;28;20058;-65
2022/06/01 07:46:45;;;;;;;13.85;9.50;;;;;;;12.77;96.49;101361.91;5098506;28;20109;-65
2022/06/01 07:49:10;;;;;;;14.32;9.93;;;;;;;12.79;93.64;101363.66;5098076;28;20423;-66
2022/06/01 07:51:37;;;;;;;16.25;9.77;;;;;;;12.85;94.88;101349.53;5098254;28;20041;-65
2022/06/01 07:54:04;;;;;;;11.63;9.02;;;;;;;13.09;94.29;101356.19;5080673;28;20039;-64
2022/06/01 07:56:29;;;;;;;11.60;7.50;;;;;;;13.33;89.28;101361.09;5098752;28;20039;-64
2022/06/01 07:58:54;;;;;;;10.80;5.90;;;;;;;13.52;86.26;101367.75;5098417;28;20027;-65
2022/06/01 08:01:25;;;;;;;8.75;6.28;;;;;;;13.66;86.60;101359.66;5098264;28;20028;-66
2022/06/01 08:03:56;;;;;;;12.40;7.43;;;;;;;13.72;85.53;101356.88;5098434;28;20499;-66
2022/06/01 08:06:22;;;;;;;8.75;6.20;;;;;;;13.86;84.26;101368.03;5097837;28;20039;-65
2022/06/01 08:08:48;;;;;;;9.27;6.43;;;;;;;13.91;84.71;101360.03;5098027;28;20028;-65
2022/06/01 08:11:13;;;;;;;10.88;6.97;;;;;;;14.00;83.38;101365.16;5097931;28;20463;-65
2022/06/01 08:13:38;;;;;;;10.23;7.13;;;;;;;13.79;83.61;101337.47;5097981;28;20028;-66
2022/06/01 08:16:04;;;;;;;12.15;7.80;;;;;;;13.86;81.09;101346.97;5098008;28;20039;-67
2022/06/01 08:18:29;;;;;;;10.05;7.60;;;;;;;13.88;82.26;101360.97;5097879;28;20359;-66
2022/06/01 08:20:55;;;;;;;8.80;7.25;;;;;;;13.87;82.43;101364.50;5097637;28;20027;-66
2022/06/01 08:23:26;;;;;;;10.90;8.15;;;;;;;13.93;86.80;101371.41;5097786;28;20411;-65
2022/06/01 08:25:51;;;;;;;7.57;5.80;;;;;;;13.88;79.58;101368.00;5097749;28;20039;-65
2022/06/01 08:28:17;;;;;;;7.97;4.75;;;;;;;13.63;79.47;101338.66;5097389;28;20040;-66
2022/06/01 08:30:43;;;;;;;6.88;4.65;;;;;;;13.76;79.65;101349.81;5097835;28;20024;-66
2022/06/01 08:33:09;;;;;;;6.53;5.32;;;;;;;13.82;78.78;101369.00;5096568;28;20419;-66
2022/06/01 08:35:39;;;;;;;7.43;5.63;;;;;;;13.93;81.30;101347.75;5097476;28;20039;-66
2022/06/01 08:38:05;;;;;;;9.13;5.95;;;;;;;14.03;77.54;101358.94;5097410;28;20478;-64
2022/06/01 08:40:36;;;;;;;8.55;6.28;;;;;;;14.05;77.32;101344.00;5097504;28;20051;-64
2022/06/01 08:43:06;;;;;;;6.32;5.70;;;;;;;14.08;76.69;101346.56;5097897;28;20028;-65
2022/06/01 08:45:32;;;;;;;7.45;6.72;;;;;;;14.04;78.22;101350.16;5097338;28;20035;-67
2022/06/01 08:47:58;;;;;;;7.68;6.63;;;;;;;14.06;78.49;101349.22;5097191;28;20043;-66
2022/06/01 08:50:28;;;;;;;7.60;6.43;;;;;;;14.09;80.29;101349.16;5097292;28;20036;-66
2022/06/01 08:52:56;;;;;;;7.30;6.53;;;;;;;14.28;76.48;101360.19;5097340;28;20039;-65
2022/06/01 08:55:23;;;;;;;8.57;6.53;;;;;;;14.53;77.25;101347.44;5097133;28;20054;-65
2022/06/01 08:57:56;;;;;;;7.90;5.93;;;;;;;14.68;76.64;101356.75;5097086;28;20362;-65
2022/06/01 09:00:27;;;;;;;7.28;5.18;;;;;;;14.54;75.81;101346.53;5096905;28;20109;-64
2022/06/01 09:03:07;;;;;;;8.95;4.45;;;;;;;14.74;73.47;101362.75;5097229;28;20032;-66
2022/06/01 09:05:48;;;;;;;9.35;4.70;;;;;;;15.85;70.61;101364.44;5097168;28;20028;-66
2022/06/01 09:08:22;;;;;;;4.55;4.07;;;;;;;16.27;67.76;101360.63;5096997;28;20024;-67
2022/06/01 09:11:07;;;;;;;5.40;4.05;;;;;;;16.24;66.86;101360.72;5096934;28;20024;-65
2022/06/01 09:14:11;;;;;;;6.65;4.20;;;;;;;15.96;67.44;101341.25;5096801;28;20035;-66
2022/06/01 09:16:46;;;;;;;5.00;4.50;;;;;;;15.92;65.47;101356.34;5096590;28;20031;-66
2022/06/01 09:22:37;;;;;;;7.78;4.28;;;;;;;16.29;69.62;101358.78;5096374;28;20446;-64
2022/06/01 09:25:05;;;;;;;6.68;5.72;;;;;;;16.53;62.09;101340.50;5096285;28;20375;-66
2022/06/01 09:27:38;;;;;;;6.10;5.10;;;;;;;17.58;61.13;101356.53;5096206;28;20529;-67
2022/06/01 09:30:36;;;;;;;6.45;5.30;;;;;;;17.54;62.32;101351.38;5096635;28;20112;-65
2022/06/01 09:33:29;;;;;;;5.65;5.15;;;;;;;17.39;63.42;101364.22;5096632;28;20028;-65
2022/06/01 09:36:06;;;;;;;7.82;5.60;;;;;;;17.56;62.53;101366.28;5088001;28;20036;-66
2022/06/01 09:38:47;;;;;;;6.82;5.80;;;;;;;17.38;63.03;101374.84;5096380;28;20093;-65
2022/06/01 09:41:40;;;;;;;8.13;6.00;;;;;;;16.91;64.65;101371.09;5096628;28;20397;-66
2022/06/01 09:44:18;;;;;;;9.80;7.28;;;;;;;16.50;64.03;101369.66;5095821;28;20043;-65
2022/06/01 09:46:46;;;;;;;8.65;5.90;;;;;;;16.18;67.28;101366.16;5096284;28;20088;-66
2022/06/01 09:49:29;;;;;;;4.60;3.50;;;;;;;15.89;69.15;101372.25;5078129;28;20340;-65
2022/06/01 09:52:19;;;;;;;4.05;3.30;;;;;;;15.68;68.71;101371.94;5096371;28;20090;-66
2022/06/01 09:54:52;;;;;;;4.90;4.25;;;;;;;15.74;69.55;101377.06;5094880;28;20464;-66
2022/06/01 09:57:18;;;;;;;5.93;4.20;;;;;;;15.65;69.52;101371.13;5096041;28;20036;-66
2022/06/01 10:08:16;;;;;;;4.90;2.90;;;;;;;15.06;68.71;101400.72;5095937;28;20470;-66
2022/06/01 10:11:00;;;;;;;6.57;4.20;;;;;;;14.55;75.75;101414.94;5095800;28;20028;-67
2022/06/01 10:13:33;;;;;;;6.10;4.90;;;;;;;13.55;84.90;101440.47;5095721;28;20089;-67
2022/06/01 10:16:12;;;;;;;6.70;5.97;;;;;;;12.99;89.10;101421.13;5095260;28;20020;-67
2022/06/01 10:18:40;;;;;;;8.57;6.53;;;;;;;12.40;91.88;101411.41;5095843;28;20028;-66
2022/06/01 10:21:09;;;;;;;7.53;6.72;;;;;;;12.28;94.86;101437.81;5095689;28;20024;-66
2022/06/01 10:23:51;;;;;;;9.57;8.57;;;;;;;12.09;92.70;101443.25;5095405;28;20517;-66
2022/06/01 10:26:23;;;;;;;9.77;8.35;;;;;;;11.85;96.32;101456.56;5095383;28;20060;-66
2022/06/01 10:28:54;;;;;;;12.18;8.52;;;;;;;11.67;99.93;101451.44;5095647;28;20039;-65
2022/06/01 10:31:28;;;;;;;8.25;7.30;;;;;;;11.44;99.48;101446.38;5095442;28;20024;-66
2022/06/01 10:34:38;;;;;;;10.18;7.82;;;;;;;11.26;100.00;101439.50;5095352;28;20034;-64
2022/06/01 10:37:12;;;;;;;11.43;9.23;;;;;;;11.30;100.00;101430.75;5056976;28;20354;-64
2022/06/01 10:39:44;;;;;;;10.70;9.00;;;;;;;11.46;100.00;101432.38;5095524;28;20032;-66
2022/06/01 10:42:22;;;;;;;10.63;9.50;;;;;;;11.54;100.00;101426.22;5095268;28;20115;-65
2022/06/01 10:44:50;;;;;;;10.20;8.57;;;;;;;11.77;100.00;101426.94;5095354;28;20330;-65
2022/06/01 10:47:36;;;;;;;10.73;9.57;;;;;;;12.14;100.00;101427.44;5095328;28;20032;-66
2022/06/01 10:50:13;;;;;;;9.57;8.52;;;;;;;12.58;100.00;101421.69;5095258;28;20108;-66
2022/06/01 10:52:51;;;;;;;9.70;8.13;;;;;;;12.97;100.00;101419.44;5095289;28;20089;-66
2022/06/01 10:55:33;;;;;;;9.77;6.65;;;;;;;13.13;100.00;101434.09;5094683;28;20032;-66
2022/06/01 10:58:01;;;;;;;11.15;6.18;;;;;;;13.30;100.00;101421.59;5095095;28;20108;-67
2022/06/01 11:00:32;;;;;;;6.10;5.60;;;;;;;13.65;94.60;101428.06;5095238;28;20096;-65
2022/06/01 11:03:14;;;;;;;7.25;5.80;;;;;;;13.98;96.09;101435.34;5095163;28;20111;-65
2022/06/01 11:05:59;;;;;;;;;;;;;;;14.04;94.48;101429.09;5095524;28;20032;-65
2022/06/01 11:08:48;;;;;;;5.57;4.97;;;;;;;14.10;89.43;101440.41;5094830;28;20323;-66
2022/06/01 11:11:35;;;;;;;5.30;4.68;;;;;;;14.14;89.63;101431.56;5095152;28;20101;-64
2022/06/01 11:14:24;;;;;;;5.47;4.97;;;;;;;14.05;87.31;101404.50;5094396;28;20042;-65
2022/06/01 11:16:55;;;;;;;4.07;3.60;;;;;;;13.92;86.39;101424.94;5095112;28;20394;-66
2022/06/01 11:20:01;;;;;;;4.73;3.77;;;;;;;13.68;87.72;101420.97;5094789;28;20032;-66
2022/06/01 11:22:49;;;;;;;4.80;3.30;;;;;;;13.76;87.14;101418.22;5093870;28;20043;-66
2022/06/01 11:25:39;;;;;;;6.43;4.05;;;;;;;14.06;87.30;101422.91;5094602;28;20435;-66
2022/06/01 11:28:13;;;;;;;4.65;4.13;;;;;;;14.52;85.02;101427.34;5094686;28;20094;-67
2022/06/01 11:30:46;;;;;;;3.72;3.42;;;;;;;14.96;84.67;101434.28;5094621;28;20145;-65
2022/06/01 11:33:24;;;;;;;4.30;3.35;;;;;;;15.46;80.01;101430.47;5094589;28;20371;-66
2022/06/01 11:36:09;;;;;;;3.72;3.40;;;;;;;15.77;82.39;101441.19;5094978;28;20028;-66
2022/06/01 11:38:40;;;;;;;3.30;2.80;;;;;;;15.74;78.39;101440.41;5094536;28;20024;-67
2022/06/01 11:41:13;;;;;;;2.72;2.10;;;;;;;15.73;74.34;101438.69;5094679;28;20092;-66
2022/06/01 11:43:54;;;;;;;2.40;1.85;;;;;;;15.68;71.71;101438.78;5095088;28;20120;-65
2022/06/01 11:46:24;;;;;;;2.40;2.20;;;;;;;15.68;73.59;101451.09;5094701;28;20115;-65
2022/06/01 11:48:57;;;;;;;5.30;2.78;;;;;;;15.51;72.29;101431.25;5094685;28;20028;-67
2022/06/01 11:51:37;;;;;;;3.13;2.83;;;;;;;15.65;74.38;101446.75;5094068;28;20060;-65
2022/06/01 11:54:09;;;;;;;5.90;3.40;;;;;;;15.99;74.33;101444.13;5094612;28;20432;-65